sensor_id;sensor_type;location;lat;lon;timestamp;P1;durP1;ratioP1;P2;durP2;ratioP2
67597;SDS011;62026;39.230;9.122;2023-08-01T00:02:10;7.72;;;1.90;;
67597;SDS011;62026;39.230;9.122;2023-08-01T00:04:37;6.60;;;1.80;;
67597;SDS011;62026;39.230;9.122;2023-08-01T00:07:03;6.68;;;1.75;;
67597;SDS011;62026;39.230;9.122;2023-08-01T00:09:29;10.02;;;2.30;;
67597;SDS011;62026;39.230;9.122;2023-08-01T00:11:55;8.93;;;1.95;;
67597;SDS011;62026;39.230;9.122;2023-08-01T00:14:21;8.73;;;1.70;;
67597;SDS011;62026;39.230;9.122;2023-08-01T00:16:49;8.88;;;2.00;;
67597;SDS011;62026;39.230;9.122;2023-08-01T00:19:16;5.97;;;1.77;;
67597;SDS011;62026;39.230;9.122;2023-08-01T00:21:43;8.63;;;1.48;;
67597;SDS011;62026;39.230;9.122;2023-08-01T00:24:09;6.28;;;1.63;;
67597;SDS011;62026;39.230;9.122;2023-08-01T00:26:35;10.65;;;1.70;;
67597;SDS011;62026;39.230;9.122;2023-08-01T00:29:01;8.32;;;1.88;;
67597;SDS011;62026;39.230;9.122;2023-08-01T00:31:27;8.68;;;1.95;;
67597;SDS011;62026;39.230;9.122;2023-08-01T00:33:55;6.18;;;1.70;;
67597;SDS011;62026;39.230;9.122;2023-08-01T00:36:21;9.73;;;1.67;;
67597;SDS011;62026;39.230;9.122;2023-08-01T00:38:47;6.80;;;1.85;;
67597;SDS011;62026;39.230;9.122;2023-08-01T00:41:14;9.02;;;1.80;;
67597;SDS011;62026;39.230;9.122;2023-08-01T00:43:40;3.53;;;1.60;;
67597;SDS011;62026;39.230;9.122;2023-08-01T00:46:06;9.57;;;1.85;;
67597;SDS011;62026;39.230;9.122;2023-08-01T00:48:33;6.22;;;1.67;;
67597;SDS011;62026;39.230;9.122;2023-08-01T00:51:01;6.13;;;1.73;;
67597;SDS011;62026;39.230;9.122;2023-08-01T00:53:31;6.00;;;1.63;;
67597;SDS011;62026;39.230;9.122;2023-08-01T00:55:57;6.53;;;1.63;;
67597;SDS011;62026;39.230;9.122;2023-08-01T00:58:25;8.85;;;1.70;;
67597;SDS011;62026;39.230;9.122;2023-08-01T01:00:51;7.38;;;1.88;;
67597;SDS011;62026;39.230;9.122;2023-08-01T01:03:17;6.97;;;1.77;;
67597;SDS011;62026;39.230;9.122;2023-08-01T01:06:06;6.95;;;1.67;;
67597;SDS011;62026;39.230;9.122;2023-08-01T01:08:36;5.43;;;1.70;;
67597;SDS011;62026;39.230;9.122;2023-08-01T01:11:02;5.32;;;1.60;;
67597;SDS011;62026;39.230;9.122;2023-08-01T01:13:29;6.45;;;2.03;;
67597;SDS011;62026;39.230;9.122;2023-08-01T01:15:55;8.13;;;1.77;;
67597;SDS011;62026;39.230;9.122;2023-08-01T01:18:21;8.80;;;1.83;;
67597;SDS011;62026;39.230;9.122;2023-08-01T01:20:47;12.75;;;2.30;;
67597;SDS011;62026;39.230;9.122;2023-08-01T01:23:13;8.13;;;1.95;;
67597;SDS011;62026;39.230;9.122;2023-08-01T01:25:39;8.93;;;2.00;;
67597;SDS011;62026;39.230;9.122;2023-08-01T01:28:07;12.52;;;1.73;;
67597;SDS011;62026;39.230;9.122;2023-08-01T01:30:35;7.55;;;1.70;;
67597;SDS011;62026;39.230;9.122;2023-08-01T01:33:02;8.25;;;1.90;;
67597;SDS011;62026;39.230;9.122;2023-08-01T01:35:29;6.53;;;1.70;;
67597;SDS011;62026;39.230;9.122;2023-08-01T01:37:55;5.90;;;1.65;;
67597;SDS011;62026;39.230;9.122;2023-08-01T01:40:23;7.75;;;1.30;;
67597;SDS011;62026;39.230;9.122;2023-08-01T01:42:50;5.65;;;1.83;;
67597;SDS011;62026;39.230;9.122;2023-08-01T01:45:16;6.57;;;1.83;;
67597;SDS011;62026;39.230;9.122;2023-08-01T01:47:42;6.10;;;1.60;;
67597;SDS011;62026;39.230;9.122;2023-08-01T01:50:08;5.65;;;1.60;;
67597;SDS011;62026;39.230;9.122;2023-08-01T01:52:34;6.88;;;1.75;;
67597;SDS011;62026;39.230;9.122;2023-08-01T01:55:01;8.25;;;1.92;;
67597;SDS011;62026;39.230;9.122;2023-08-01T01:57:27;8.43;;;2.30;;
67597;SDS011;62026;39.230;9.122;2023-08-01T01:59:53;8.73;;;1.98;;
67597;SDS011;62026;39.230;9.122;2023-08-01T02:02:19;9.32;;;1.80;;
67597;SDS011;62026;39.230;9.122;2023-08-01T02:04:49;8.32;;;1.85;;
67597;SDS011;62026;39.230;9.122;2023-08-01T02:07:15;7.72;;;1.65;;
67597;SDS011;62026;39.230;9.122;2023-08-01T02:09:41;10.43;;;1.90;;
67597;SDS011;62026;39.230;9.122;2023-08-01T02:12:09;10.00;;;1.88;;
67597;SDS011;62026;39.230;9.122;2023-08-01T02:14:36;7.53;;;1.80;;
67597;SDS011;62026;39.230;9.122;2023-08-01T02:17:02;7.55;;;2.00;;
67597;SDS011;62026;39.230;9.122;2023-08-01T02:19:29;5.40;;;1.67;;
67597;SDS011;62026;39.230;9.122;2023-08-01T02:21:55;11.90;;;2.47;;
67597;SDS011;62026;39.230;9.122;2023-08-01T02:24:21;6.57;;;1.60;;
67597;SDS011;62026;39.230;9.122;2023-08-01T02:26:47;4.95;;;1.77;;
67597;SDS011;62026;39.230;9.122;2023-08-01T02:29:15;9.75;;;2.10;;
67597;SDS011;62026;39.230;9.122;2023-08-01T02:31:41;5.28;;;1.90;;
67597;SDS011;62026;39.230;9.122;2023-08-01T02:34:07;9.48;;;2.00;;
67597;SDS011;62026;39.230;9.122;2023-08-01T02:36:34;8.00;;;2.08;;
67597;SDS011;62026;39.230;9.122;2023-08-01T02:39:00;8.65;;;1.80;;
67597;SDS011;62026;39.230;9.122;2023-08-01T02:41:26;9.75;;;2.05;;
67597;SDS011;62026;39.230;9.122;2023-08-01T02:43:52;7.60;;;2.08;;
67597;SDS011;62026;39.230;9.122;2023-08-01T02:46:18;8.05;;;1.98;;
67597;SDS011;62026;39.230;9.122;2023-08-01T02:48:44;8.20;;;1.80;;
67597;SDS011;62026;39.230;9.122;2023-08-01T02:51:11;7.82;;;2.00;;
67597;SDS011;62026;39.230;9.122;2023-08-01T02:53:37;8.25;;;1.83;;
67597;SDS011;62026;39.230;9.122;2023-08-01T02:56:05;7.95;;;1.80;;
67597;SDS011;62026;39.230;9.122;2023-08-01T02:58:34;4.80;;;1.73;;
67597;SDS011;62026;39.230;9.122;2023-08-01T03:01:00;7.88;;;2.13;;
67597;SDS011;62026;39.230;9.122;2023-08-01T03:03:26;7.75;;;1.67;;
67597;SDS011;62026;39.230;9.122;2023-08-01T03:05:52;6.88;;;1.98;;
67597;SDS011;62026;39.230;9.122;2023-08-01T03:08:19;5.32;;;1.88;;
67597;SDS011;62026;39.230;9.122;2023-08-01T03:10:45;7.63;;;1.75;;
67597;SDS011;62026;39.230;9.122;2023-08-01T03:13:11;5.72;;;1.98;;
67597;SDS011;62026;39.230;9.122;2023-08-01T03:15:37;8.35;;;1.77;;
67597;SDS011;62026;39.230;9.122;2023-08-01T03:18:03;9.00;;;1.95;;
67597;SDS011;62026;39.230;9.122;2023-08-01T03:20:29;9.70;;;1.88;;
67597;SDS011;62026;39.230;9.122;2023-08-01T03:22:55;6.65;;;1.90;;
67597;SDS011;62026;39.230;9.122;2023-08-01T03:25:21;7.28;;;2.08;;
67597;SDS011;62026;39.230;9.122;2023-08-01T03:27:47;7.20;;;1.83;;
67597;SDS011;62026;39.230;9.122;2023-08-01T03:30:13;5.93;;;1.60;;
67597;SDS011;62026;39.230;9.122;2023-08-01T03:32:39;8.25;;;2.03;;
67597;SDS011;62026;39.230;9.122;2023-08-01T03:35:05;5.63;;;1.70;;
67597;SDS011;62026;39.230;9.122;2023-08-01T03:37:32;7.78;;;1.55;;
67597;SDS011;62026;39.230;9.122;2023-08-01T03:39:58;9.45;;;2.00;;
67597;SDS011;62026;39.230;9.122;2023-08-01T03:42:24;10.45;;;1.90;;
67597;SDS011;62026;39.230;9.122;2023-08-01T03:44:50;6.47;;;2.10;;
67597;SDS011;62026;39.230;9.122;2023-08-01T03:47:16;8.00;;;1.80;;
67597;SDS011;62026;39.230;9.122;2023-08-01T03:49:42;7.80;;;1.85;;
67597;SDS011;62026;39.230;9.122;2023-08-01T03:52:08;6.07;;;1.75;;
67597;SDS011;62026;39.230;9.122;2023-08-01T03:54:34;10.20;;;1.95;;
67597;SDS011;62026;39.230;9.122;2023-08-01T03:57:00;11.07;;;2.20;;
67597;SDS011;62026;39.230;9.122;2023-08-01T03:59:27;5.63;;;1.70;;
67597;SDS011;62026;39.230;9.122;2023-08-01T04:01:53;6.50;;;1.90;;
67597;SDS011;62026;39.230;9.122;2023-08-01T04:04:19;9.05;;;2.60;;
67597;SDS011;62026;39.230;9.122;2023-08-01T04:06:45;6.10;;;2.10;;
67597;SDS011;62026;39.230;9.122;2023-08-01T04:09:11;7.43;;;1.63;;
67597;SDS011;62026;39.230;9.122;2023-08-01T04:11:37;7.75;;;2.10;;
67597;SDS011;62026;39.230;9.122;2023-08-01T04:14:03;9.52;;;1.85;;
67597;SDS011;62026;39.230;9.122;2023-08-01T04:16:29;8.07;;;1.92;;
67597;SDS011;62026;39.230;9.122;2023-08-01T04:18:55;5.70;;;1.80;;
67597;SDS011;62026;39.230;9.122;2023-08-01T04:21:21;8.15;;;1.90;;
67597;SDS011;62026;39.230;9.122;2023-08-01T04:23:47;5.47;;;1.90;;
67597;SDS011;62026;39.230;9.122;2023-08-01T04:26:13;8.65;;;1.88;;
67597;SDS011;62026;39.230;9.122;2023-08-01T04:28:39;5.97;;;1.75;;
67597;SDS011;62026;39.230;9.122;2023-08-01T04:31:05;8.15;;;1.80;;
67597;SDS011;62026;39.230;9.122;2023-08-01T04:33:31;10.13;;;2.80;;
67597;SDS011;62026;39.230;9.122;2023-08-01T04:35:57;7.80;;;2.45;;
67597;SDS011;62026;39.230;9.122;2023-08-01T04:38:23;8.25;;;2.13;;
67597;SDS011;62026;39.230;9.122;2023-08-01T04:40:49;8.43;;;2.72;;
67597;SDS011;62026;39.230;9.122;2023-08-01T04:43:15;11.38;;;2.55;;
67597;SDS011;62026;39.230;9.122;2023-08-01T04:45:41;8.38;;;1.98;;
67597;SDS011;62026;39.230;9.122;2023-08-01T04:48:06;11.05;;;1.77;;
67597;SDS011;62026;39.230;9.122;2023-08-01T04:50:32;10.18;;;1.88;;
67597;SDS011;62026;39.230;9.122;2023-08-01T04:52:58;9.20;;;1.83;;
67597;SDS011;62026;39.230;9.122;2023-08-01T04:55:24;9.70;;;2.17;;
67597;SDS011;62026;39.230;9.122;2023-08-01T04:57:50;12.85;;;2.10;;
67597;SDS011;62026;39.230;9.122;2023-08-01T05:00:16;8.90;;;2.45;;
67597;SDS011;62026;39.230;9.122;2023-08-01T05:02:43;7.13;;;1.90;;
67597;SDS011;62026;39.230;9.122;2023-08-01T05:05:09;6.03;;;2.30;;
67597;SDS011;62026;39.230;9.122;2023-08-01T05:07:35;6.85;;;1.95;;
67597;SDS011;62026;39.230;9.122;2023-08-01T05:10:01;7.60;;;2.53;;
67597;SDS011;62026;39.230;9.122;2023-08-01T05:12:27;7.07;;;1.77;;
67597;SDS011;62026;39.230;9.122;2023-08-01T05:14:53;6.63;;;1.73;;
67597;SDS011;62026;39.230;9.122;2023-08-01T05:17:18;7.60;;;2.10;;
67597;SDS011;62026;39.230;9.122;2023-08-01T05:19:44;13.40;;;3.20;;
67597;SDS011;62026;39.230;9.122;2023-08-01T05:22:10;5.55;;;1.98;;
67597;SDS011;62026;39.230;9.122;2023-08-01T05:24:36;8.02;;;2.03;;
67597;SDS011;62026;39.230;9.122;2023-08-01T05:27:02;9.07;;;2.10;;
67597;SDS011;62026;39.230;9.122;2023-08-01T05:29:29;8.07;;;2.20;;
67597;SDS011;62026;39.230;9.122;2023-08-01T05:31:55;8.90;;;2.03;;
67597;SDS011;62026;39.230;9.122;2023-08-01T05:34:20;5.95;;;1.90;;
67597;SDS011;62026;39.230;9.122;2023-08-01T05:36:46;10.07;;;1.80;;
67597;SDS011;62026;39.230;9.122;2023-08-01T05:39:12;9.15;;;2.10;;
67597;SDS011;62026;39.230;9.122;2023-08-01T05:41:38;11.93;;;2.22;;
67597;SDS011;62026;39.230;9.122;2023-08-01T05:44:05;12.07;;;2.55;;
67597;SDS011;62026;39.230;9.122;2023-08-01T05:46:31;12.73;;;2.55;;
67597;SDS011;62026;39.230;9.122;2023-08-01T05:48:57;11.38;;;2.05;;
67597;SDS011;62026;39.230;9.122;2023-08-01T05:51:23;8.88;;;2.40;;
67597;SDS011;62026;39.230;9.122;2023-08-01T05:53:49;6.63;;;2.05;;
67597;SDS011;62026;39.230;9.122;2023-08-01T05:56:16;7.50;;;1.85;;
67597;SDS011;62026;39.230;9.122;2023-08-01T05:58:42;9.70;;;2.42;;
67597;SDS011;62026;39.230;9.122;2023-08-01T06:01:09;10.77;;;2.08;;
67597;SDS011;62026;39.230;9.122;2023-08-01T06:03:37;6.45;;;2.00;;
67597;SDS011;62026;39.230;9.122;2023-08-01T06:06:03;13.20;;;1.95;;
67597;SDS011;62026;39.230;9.122;2023-08-01T06:08:30;6.65;;;1.83;;
67597;SDS011;62026;39.230;9.122;2023-08-01T06:10:56;8.80;;;2.05;;
67597;SDS011;62026;39.230;9.122;2023-08-01T06:13:22;9.30;;;2.10;;
67597;SDS011;62026;39.230;9.122;2023-08-01T06:15:48;6.47;;;1.88;;
67597;SDS011;62026;39.230;9.122;2023-08-01T06:18:14;6.25;;;2.28;;
67597;SDS011;62026;39.230;9.122;2023-08-01T06:20:39;7.25;;;2.33;;
67597;SDS011;62026;39.230;9.122;2023-08-01T06:23:06;9.68;;;1.73;;
67597;SDS011;62026;39.230;9.122;2023-08-01T06:25:32;7.97;;;2.20;;
67597;SDS011;62026;39.230;9.122;2023-08-01T06:27:57;10.38;;;2.00;;
67597;SDS011;62026;39.230;9.122;2023-08-01T06:30:23;7.03;;;2.30;;
67597;SDS011;62026;39.230;9.122;2023-08-01T06:32:49;7.93;;;2.38;;
67597;SDS011;62026;39.230;9.122;2023-08-01T06:35:15;7.63;;;2.20;;
67597;SDS011;62026;39.230;9.122;2023-08-01T06:37:41;8.90;;;2.30;;
67597;SDS011;62026;39.230;9.122;2023-08-01T06:40:07;6.93;;;2.03;;
67597;SDS011;62026;39.230;9.122;2023-08-01T06:42:34;9.15;;;2.38;;
67597;SDS011;62026;39.230;9.122;2023-08-01T06:45:00;13.02;;;2.78;;
67597;SDS011;62026;39.230;9.122;2023-08-01T06:47:26;8.00;;;2.17;;
67597;SDS011;62026;39.230;9.122;2023-08-01T06:49:52;6.20;;;2.28;;
67597;SDS011;62026;39.230;9.122;2023-08-01T06:52:18;8.55;;;2.25;;
67597;SDS011;62026;39.230;9.122;2023-08-01T06:54:44;9.95;;;2.55;;
67597;SDS011;62026;39.230;9.122;2023-08-01T06:57:10;7.82;;;2.50;;
67597;SDS011;62026;39.230;9.122;2023-08-01T06:59:36;9.90;;;2.88;;
67597;SDS011;62026;39.230;9.122;2023-08-01T07:02:02;11.10;;;2.88;;
67597;SDS011;62026;39.230;9.122;2023-08-01T07:04:29;8.13;;;2.40;;
67597;SDS011;62026;39.230;9.122;2023-08-01T07:06:55;16.13;;;2.67;;
67597;SDS011;62026;39.230;9.122;2023-08-01T07:09:21;8.27;;;2.28;;
67597;SDS011;62026;39.230;9.122;2023-08-01T07:11:47;7.90;;;2.38;;
67597;SDS011;62026;39.230;9.122;2023-08-01T07:14:12;9.90;;;2.55;;
67597;SDS011;62026;39.230;9.122;2023-08-01T07:16:38;10.75;;;2.72;;
67597;SDS011;62026;39.230;9.122;2023-08-01T07:19:04;12.07;;;2.30;;
67597;SDS011;62026;39.230;9.122;2023-08-01T07:21:30;10.43;;;3.47;;
67597;SDS011;62026;39.230;9.122;2023-08-01T07:23:56;7.68;;;2.28;;
67597;SDS011;62026;39.230;9.122;2023-08-01T07:26:23;9.05;;;2.70;;
67597;SDS011;62026;39.230;9.122;2023-08-01T07:28:49;7.00;;;2.60;;
67597;SDS011;62026;39.230;9.122;2023-08-01T07:31:15;11.45;;;2.70;;
67597;SDS011;62026;39.230;9.122;2023-08-01T07:33:41;11.13;;;2.80;;
67597;SDS011;62026;39.230;9.122;2023-08-01T07:36:07;8.05;;;3.03;;
67597;SDS011;62026;39.230;9.122;2023-08-01T07:38:33;7.22;;;2.70;;
67597;SDS011;62026;39.230;9.122;2023-08-01T07:41:02;12.35;;;2.63;;
67597;SDS011;62026;39.230;9.122;2023-08-01T07:43:30;7.45;;;2.78;;
67597;SDS011;62026;39.230;9.122;2023-08-01T07:45:59;12.45;;;3.00;;
67597;SDS011;62026;39.230;9.122;2023-08-01T07:48:25;8.35;;;2.50;;
67597;SDS011;62026;39.230;9.122;2023-08-01T07:50:51;11.05;;;3.53;;
67597;SDS011;62026;39.230;9.122;2023-08-01T07:53:18;9.60;;;2.72;;
67597;SDS011;62026;39.230;9.122;2023-08-01T07:55:44;8.93;;;3.05;;
67597;SDS011;62026;39.230;9.122;2023-08-01T07:58:09;9.43;;;2.58;;
67597;SDS011;62026;39.230;9.122;2023-08-01T08:00:36;9.93;;;3.13;;
67597;SDS011;62026;39.230;9.122;2023-08-01T08:03:02;14.00;;;4.30;;
67597;SDS011;62026;39.230;9.122;2023-08-01T08:05:28;11.57;;;3.88;;
67597;SDS011;62026;39.230;9.122;2023-08-01T08:07:54;11.95;;;3.10;;
67597;SDS011;62026;39.230;9.122;2023-08-01T08:10:19;7.30;;;3.00;;
67597;SDS011;62026;39.230;9.122;2023-08-01T08:12:46;4.97;;;2.60;;
67597;SDS011;62026;39.230;9.122;2023-08-01T08:15:12;7.10;;;2.58;;
67597;SDS011;62026;39.230;9.122;2023-08-01T08:17:38;10.27;;;2.47;;
67597;SDS011;62026;39.230;9.122;2023-08-01T08:20:05;8.25;;;2.75;;
67597;SDS011;62026;39.230;9.122;2023-08-01T08:22:31;10.65;;;3.05;;
67597;SDS011;62026;39.230;9.122;2023-08-01T08:24:57;7.90;;;3.58;;
67597;SDS011;62026;39.230;9.122;2023-08-01T08:27:23;11.40;;;3.47;;
67597;SDS011;62026;39.230;9.122;2023-08-01T08:29:50;10.18;;;2.95;;
67597;SDS011;62026;39.230;9.122;2023-08-01T08:32:16;9.02;;;2.90;;
67597;SDS011;62026;39.230;9.122;2023-08-01T08:34:42;6.15;;;2.85;;
67597;SDS011;62026;39.230;9.122;2023-08-01T08:37:08;6.15;;;3.58;;
67597;SDS011;62026;39.230;9.122;2023-08-01T08:39:34;6.80;;;3.35;;
67597;SDS011;62026;39.230;9.122;2023-08-01T08:41:59;7.63;;;2.92;;
67597;SDS011;62026;39.230;9.122;2023-08-01T08:44:26;15.40;;;3.83;;
67597;SDS011;62026;39.230;9.122;2023-08-01T08:46:55;8.07;;;3.25;;
67597;SDS011;62026;39.230;9.122;2023-08-01T08:49:31;7.68;;;2.83;;
67597;SDS011;62026;39.230;9.122;2023-08-01T08:51:57;9.57;;;3.10;;
67597;SDS011;62026;39.230;9.122;2023-08-01T08:54:24;9.40;;;3.00;;
67597;SDS011;62026;39.230;9.122;2023-08-01T08:56:52;7.40;;;2.88;;
67597;SDS011;62026;39.230;9.122;2023-08-01T08:59:19;9.27;;;3.20;;
67597;SDS011;62026;39.230;9.122;2023-08-01T09:01:46;9.48;;;3.38;;
67597;SDS011;62026;39.230;9.122;2023-08-01T09:04:12;7.78;;;2.70;;
67597;SDS011;62026;39.230;9.122;2023-08-01T09:06:45;9.27;;;3.22;;
67597;SDS011;62026;39.230;9.122;2023-08-01T09:09:14;6.68;;;2.70;;
67597;SDS011;62026;39.230;9.122;2023-08-01T09:11:50;14.52;;;3.05;;
67597;SDS011;62026;39.230;9.122;2023-08-01T09:14:17;8.65;;;2.47;;
67597;SDS011;62026;39.230;9.122;2023-08-01T09:16:45;7.28;;;2.58;;
67597;SDS011;62026;39.230;9.122;2023-08-01T09:19:16;7.80;;;2.75;;
67597;SDS011;62026;39.230;9.122;2023-08-01T09:21:47;8.23;;;2.55;;
67597;SDS011;62026;39.230;9.122;2023-08-01T09:24:14;6.40;;;2.40;;
67597;SDS011;62026;39.230;9.122;2023-08-01T09:26:43;11.25;;;2.90;;
67597;SDS011;62026;39.230;9.122;2023-08-01T09:29:11;8.23;;;2.47;;
67597;SDS011;62026;39.230;9.122;2023-08-01T09:31:40;9.48;;;2.53;;
67597;SDS011;62026;39.230;9.122;2023-08-01T09:36:49;8.15;;;2.10;;
67597;SDS011;62026;39.230;9.122;2023-08-01T09:39:20;15.82;;;2.80;;
67597;SDS011;62026;39.230;9.122;2023-08-01T09:41:54;12.77;;;2.40;;
67597;SDS011;62026;39.230;9.122;2023-08-01T09:44:28;7.88;;;2.70;;
67597;SDS011;62026;39.230;9.122;2023-08-01T09:47:02;8.55;;;2.70;;
67597;SDS011;62026;39.230;9.122;2023-08-01T09:49:31;9.95;;;2.53;;
67597;SDS011;62026;39.230;9.122;2023-08-01T09:51:59;5.55;;;2.15;;
67597;SDS011;62026;39.230;9.122;2023-08-01T09:54:26;8.68;;;2.75;;
67597;SDS011;62026;39.230;9.122;2023-08-01T09:56:53;7.00;;;3.03;;
67597;SDS011;62026;39.230;9.122;2023-08-01T09:59:21;9.77;;;2.50;;
67597;SDS011;62026;39.230;9.122;2023-08-01T10:01:51;5.57;;;2.20;;
67597;SDS011;62026;39.230;9.122;2023-08-01T10:04:20;12.52;;;2.55;;
67597;SDS011;62026;39.230;9.122;2023-08-01T10:06:54;10.38;;;2.58;;
67597;SDS011;62026;39.230;9.122;2023-08-01T10:09:27;8.65;;;2.50;;
67597;SDS011;62026;39.230;9.122;2023-08-01T10:11:57;9.18;;;2.38;;
67597;SDS011;62026;39.230;9.122;2023-08-01T10:14:24;10.45;;;2.40;;
67597;SDS011;62026;39.230;9.122;2023-08-01T10:16:51;6.82;;;2.35;;
67597;SDS011;62026;39.230;9.122;2023-08-01T10:19:19;8.95;;;2.55;;
67597;SDS011;62026;39.230;9.122;2023-08-01T10:21:45;15.85;;;2.80;;
67597;SDS011;62026;39.230;9.122;2023-08-01T10:24:13;6.95;;;2.58;;
67597;SDS011;62026;39.230;9.122;2023-08-01T10:26:44;12.05;;;2.70;;
67597;SDS011;62026;39.230;9.122;2023-08-01T10:29:11;6.10;;;2.47;;
67597;SDS011;62026;39.230;9.122;2023-08-01T10:31:37;11.82;;;2.97;;
67597;SDS011;62026;39.230;9.122;2023-08-01T10:34:04;9.85;;;2.20;;
67597;SDS011;62026;39.230;9.122;2023-08-01T10:36:37;12.18;;;3.08;;
67597;SDS011;62026;39.230;9.122;2023-08-01T10:39:03;8.52;;;3.10;;
67597;SDS011;62026;39.230;9.122;2023-08-01T10:49:43;8.88;;;3.42;;
67597;SDS011;62026;39.230;9.122;2023-08-01T10:52:22;8.10;;;3.50;;
67597;SDS011;62026;39.230;9.122;2023-08-01T10:55:03;8.40;;;3.72;;
67597;SDS011;62026;39.230;9.122;2023-08-01T10:57:35;6.50;;;3.60;;
67597;SDS011;62026;39.230;9.122;2023-08-01T11:00:15;8.68;;;4.00;;
67597;SDS011;62026;39.230;9.122;2023-08-01T11:02:51;12.35;;;4.45;;
67597;SDS011;62026;39.230;9.122;2023-08-01T11:05:17;7.40;;;3.80;;
67597;SDS011;62026;39.230;9.122;2023-08-01T11:07:52;7.50;;;4.43;;
67597;SDS011;62026;39.230;9.122;2023-08-01T11:10:25;13.05;;;4.57;;
67597;SDS011;62026;39.230;9.122;2023-08-01T11:12:52;8.65;;;4.45;;
67597;SDS011;62026;39.230;9.122;2023-08-01T11:15:19;9.40;;;4.70;;
67597;SDS011;62026;39.230;9.122;2023-08-01T11:17:49;9.10;;;4.88;;
67597;SDS011;62026;39.230;9.122;2023-08-01T11:20:20;11.25;;;5.35;;
67597;SDS011;62026;39.230;9.122;2023-08-01T11:22:58;10.85;;;4.88;;
67597;SDS011;62026;39.230;9.122;2023-08-01T11:25:41;11.02;;;5.07;;
67597;SDS011;62026;39.230;9.122;2023-08-01T11:28:14;14.75;;;5.20;;
67597;SDS011;62026;39.230;9.122;2023-08-01T11:30:43;11.60;;;5.30;;
67597;SDS011;62026;39.230;9.122;2023-08-01T11:33:14;11.07;;;4.72;;
67597;SDS011;62026;39.230;9.122;2023-08-01T11:35:43;10.98;;;4.88;;
67597;SDS011;62026;39.230;9.122;2023-08-01T11:38:09;11.40;;;4.90;;
67597;SDS011;62026;39.230;9.122;2023-08-01T11:40:36;9.32;;;4.35;;
67597;SDS011;62026;39.230;9.122;2023-08-01T11:43:04;7.70;;;4.95;;
67597;SDS011;62026;39.230;9.122;2023-08-01T11:45:30;9.43;;;4.38;;
67597;SDS011;62026;39.230;9.122;2023-08-01T11:47:55;8.80;;;4.78;;
67597;SDS011;62026;39.230;9.122;2023-08-01T11:50:22;9.00;;;5.10;;
67597;SDS011;62026;39.230;9.122;2023-08-01T11:52:50;9.23;;;4.53;;
67597;SDS011;62026;39.230;9.122;2023-08-01T11:55:24;7.15;;;4.45;;
67597;SDS011;62026;39.230;9.122;2023-08-01T11:57:55;10.88;;;5.45;;
67597;SDS011;62026;39.230;9.122;2023-08-01T12:00:23;8.98;;;4.53;;
67597;SDS011;62026;39.230;9.122;2023-08-01T12:03:02;8.80;;;4.57;;
67597;SDS011;62026;39.230;9.122;2023-08-01T12:05:37;11.80;;;4.57;;
67597;SDS011;62026;39.230;9.122;2023-08-01T12:08:13;12.18;;;4.78;;
67597;SDS011;62026;39.230;9.122;2023-08-01T12:10:41;9.05;;;4.65;;
67597;SDS011;62026;39.230;9.122;2023-08-01T12:13:20;12.88;;;4.80;;
67597;SDS011;62026;39.230;9.122;2023-08-01T12:15:50;7.88;;;4.50;;
67597;SDS011;62026;39.230;9.122;2023-08-01T12:18:22;13.60;;;5.30;;
67597;SDS011;62026;39.230;9.122;2023-08-01T12:20:53;9.15;;;4.90;;
67597;SDS011;62026;39.230;9.122;2023-08-01T12:23:19;9.77;;;4.85;;
67597;SDS011;62026;39.230;9.122;2023-08-01T12:25:46;11.93;;;5.25;;
67597;SDS011;62026;39.230;9.122;2023-08-01T12:28:13;9.40;;;4.80;;
67597;SDS011;62026;39.230;9.122;2023-08-01T12:30:40;7.63;;;4.35;;
67597;SDS011;62026;39.230;9.122;2023-08-01T12:33:07;10.82;;;4.70;;
67597;SDS011;62026;39.230;9.122;2023-08-01T12:35:34;8.70;;;4.60;;
67597;SDS011;62026;39.230;9.122;2023-08-01T12:38:04;8.45;;;4.75;;
67597;SDS011;62026;39.230;9.122;2023-08-01T12:40:30;8.07;;;4.20;;
67597;SDS011;62026;39.230;9.122;2023-08-01T12:42:56;9.50;;;4.63;;
67597;SDS011;62026;39.230;9.122;2023-08-01T12:45:22;7.22;;;4.20;;
67597;SDS011;62026;39.230;9.122;2023-08-01T12:47:48;13.50;;;4.75;;
67597;SDS011;62026;39.230;9.122;2023-08-01T12:50:14;10.88;;;4.55;;
67597;SDS011;62026;39.230;9.122;2023-08-01T12:52:41;8.32;;;4.82;;
67597;SDS011;62026;39.230;9.122;2023-08-01T12:55:07;9.70;;;4.30;;
67597;SDS011;62026;39.230;9.122;2023-08-01T12:57:33;8.82;;;4.60;;
67597;SDS011;62026;39.230;9.122;2023-08-01T12:59:59;8.90;;;4.28;;
67597;SDS011;62026;39.230;9.122;2023-08-01T13:02:26;12.70;;;4.80;;
67597;SDS011;62026;39.230;9.122;2023-08-01T13:04:52;15.30;;;4.13;;
67597;SDS011;62026;39.230;9.122;2023-08-01T13:07:18;9.90;;;4.10;;
67597;SDS011;62026;39.230;9.122;2023-08-01T13:09:44;10.50;;;4.45;;
67597;SDS011;62026;39.230;9.122;2023-08-01T13:12:10;7.75;;;4.40;;
67597;SDS011;62026;39.230;9.122;2023-08-01T13:14:36;8.45;;;3.90;;
67597;SDS011;62026;39.230;9.122;2023-08-01T13:17:02;9.48;;;4.55;;
67597;SDS011;62026;39.230;9.122;2023-08-01T13:19:30;12.35;;;4.25;;
67597;SDS011;62026;39.230;9.122;2023-08-01T13:21:56;10.35;;;4.30;;
67597;SDS011;62026;39.230;9.122;2023-08-01T13:24:21;9.13;;;4.10;;
67597;SDS011;62026;39.230;9.122;2023-08-01T13:26:47;18.30;;;4.30;;
67597;SDS011;62026;39.230;9.122;2023-08-01T13:29:14;9.63;;;5.20;;
67597;SDS011;62026;39.230;9.122;2023-08-01T13:31:40;12.73;;;5.22;;
67597;SDS011;62026;39.230;9.122;2023-08-01T13:34:07;7.88;;;4.28;;
67597;SDS011;62026;39.230;9.122;2023-08-01T13:36:33;8.88;;;4.50;;
67597;SDS011;62026;39.230;9.122;2023-08-01T13:38:59;10.98;;;4.28;;
67597;SDS011;62026;39.230;9.122;2023-08-01T13:41:25;9.10;;;4.18;;
67597;SDS011;62026;39.230;9.122;2023-08-01T13:43:51;8.38;;;3.90;;
67597;SDS011;62026;39.230;9.122;2023-08-01T13:46:17;6.45;;;3.63;;
67597;SDS011;62026;39.230;9.122;2023-08-01T13:48:47;14.45;;;3.80;;
67597;SDS011;62026;39.230;9.122;2023-08-01T13:51:13;10.25;;;3.72;;
67597;SDS011;62026;39.230;9.122;2023-08-01T13:53:39;8.40;;;4.10;;
67597;SDS011;62026;39.230;9.122;2023-08-01T13:56:09;9.85;;;4.03;;
67597;SDS011;62026;39.230;9.122;2023-08-01T13:58:37;10.02;;;3.92;;
67597;SDS011;62026;39.230;9.122;2023-08-01T14:01:04;11.80;;;3.80;;
67597;SDS011;62026;39.230;9.122;2023-08-01T14:03:32;8.27;;;4.03;;
67597;SDS011;62026;39.230;9.122;2023-08-01T14:06:06;12.40;;;3.83;;
67597;SDS011;62026;39.230;9.122;2023-08-01T14:08:38;9.57;;;3.50;;
67597;SDS011;62026;39.230;9.122;2023-08-01T14:11:06;11.05;;;3.88;;
67597;SDS011;62026;39.230;9.122;2023-08-01T14:16:03;9.25;;;3.95;;
67597;SDS011;62026;39.230;9.122;2023-08-01T14:18:29;11.93;;;3.95;;
67597;SDS011;62026;39.230;9.122;2023-08-01T14:20:55;11.82;;;3.60;;
67597;SDS011;62026;39.230;9.122;2023-08-01T14:23:21;6.32;;;3.28;;
67597;SDS011;62026;39.230;9.122;2023-08-01T14:25:47;8.55;;;3.15;;
67597;SDS011;62026;39.230;9.122;2023-08-01T14:28:14;9.70;;;3.20;;
67597;SDS011;62026;39.230;9.122;2023-08-01T14:30:40;13.27;;;3.83;;
67597;SDS011;62026;39.230;9.122;2023-08-01T14:33:06;7.20;;;3.38;;
67597;SDS011;62026;39.230;9.122;2023-08-01T14:35:36;10.65;;;3.20;;
67597;SDS011;62026;39.230;9.122;2023-08-01T14:38:06;9.02;;;2.85;;
67597;SDS011;62026;39.230;9.122;2023-08-01T14:40:32;7.50;;;3.30;;
67597;SDS011;62026;39.230;9.122;2023-08-01T14:43:00;6.53;;;2.67;;
67597;SDS011;62026;39.230;9.122;2023-08-01T14:45:27;9.55;;;2.97;;
67597;SDS011;62026;39.230;9.122;2023-08-01T14:47:53;8.73;;;3.22;;
67597;SDS011;62026;39.230;9.122;2023-08-01T14:50:19;5.80;;;3.00;;
67597;SDS011;62026;39.230;9.122;2023-08-01T14:52:45;10.45;;;3.10;;
67597;SDS011;62026;39.230;9.122;2023-08-01T14:55:11;8.43;;;3.00;;
67597;SDS011;62026;39.230;9.122;2023-08-01T14:57:37;5.30;;;3.00;;